Terminal Aerodrome Forecast
Issued by NWS

Home | Current Version | Previous Version | Text Only | Print | Product List | Glossary On
Versions: 1 2 3 4 5 6 7 8 9 10 11 12 13 14 15 16 17 18 19 20
000
FTUS46 KMFR 011729
TAFRBG
TAF
KRBG 011729Z 0118/0218 VRB03KT 6SM BR SCT003
     FM011830 36004KT P6SM SKC
     FM012200 36006KT P6SM SCT200
     FM020400 VRB03KT P6SM BKN120
     FM021000 36002KT P6SM BKN012 OVC100
     FM021400 36002KT 6SM BR VCSH SCT006 BKN015 OVC040=

USA.gov is the U.S. government's official web portal to all federal, state and local government web resources and services.